Rusco, Nebraska
Current Conditions -  °F | °C
As of 10:55 PM on Friday 19 Dec 2014 (Local Time) from KEAR Reporting Station
Overcast Overcast  
Wind Chill: 27°   Ceiling: 200
Heat Index: 27°   Visibility: 0mi
Dew Point: 25°   Wind: 3mph
Humidity: 93%   Direction: 230°SW
Pressure: 30.03"   Gusts: NA
Location:  41.0031°N, 99.1882°W
Report Text: KEAR 200455Z 23003KT M1/4SM OVC002 M03/M04 A3003 RMK AO1
Loading
Personal Weather Stations






























Interactive Weather Map New forecast layout! Learn more

10-Day Weather Forecast

Advertisements
Track Severe Weather on mobile